createdAt,value
2022-10-02T00:02:30.636Z,10.20
2022-10-02T00:05:05.205Z,10.20
2022-10-02T00:07:46.530Z,10.20
2022-10-02T00:10:32.096Z,10.20
2022-10-02T00:13:03.914Z,10.30
2022-10-02T00:15:33.919Z,10.20
2022-10-02T00:18:22.418Z,10.20
2022-10-02T00:20:55.869Z,10.20
2022-10-02T00:23:31.729Z,10.30
2022-10-02T00:26:07.438Z,10.30
2022-10-02T00:29:09.720Z,10.20
2022-10-02T00:31:55.809Z,10.20
2022-10-02T00:35:00.796Z,10.20
2022-10-02T00:37:42.157Z,10.20
2022-10-02T00:40:47.516Z,10.10
2022-10-02T00:43:40.152Z,10.10
2022-10-02T00:46:10.845Z,10.00
2022-10-02T00:49:05.287Z,10.00
2022-10-02T00:51:54.082Z,10.00
2022-10-02T00:54:21.525Z,9.90
2022-10-02T00:57:26.229Z,9.80
2022-10-02T01:00:13.326Z,9.70
2022-10-02T01:03:03.651Z,9.60
2022-10-02T01:05:32.703Z,9.50
2022-10-02T01:08:00.949Z,9.50
2022-10-02T01:10:29.752Z,9.50
2022-10-02T01:12:58.712Z,9.60
2022-10-02T01:15:51.452Z,9.50
2022-10-02T01:18:19.500Z,9.50
2022-10-02T01:20:49.966Z,9.60
2022-10-02T01:23:38.452Z,9.70
2022-10-02T01:26:06.818Z,9.80
2022-10-02T01:28:34.401Z,9.90
2022-10-02T01:31:10.316Z,9.80
2022-10-02T01:33:41.635Z,9.90
2022-10-02T01:36:11.517Z,9.90
2022-10-02T01:38:40.952Z,10.00
2022-10-02T01:41:11.473Z,10.10
2022-10-02T01:43:49.655Z,10.10
2022-10-02T01:46:29.027Z,10.10
2022-10-02T01:49:31.711Z,10.10
2022-10-02T01:52:13.080Z,10.10
2022-10-02T01:54:56.538Z,10.10
2022-10-02T01:57:42.574Z,10.20
2022-10-02T02:00:25.132Z,10.10
2022-10-02T02:03:01.823Z,10.10
2022-10-02T02:05:56.062Z,10.20
2022-10-02T02:08:46.454Z,10.20
2022-10-02T02:11:17.047Z,10.20
2022-10-02T02:13:53.450Z,10.20
2022-10-02T02:16:27.547Z,10.20
2022-10-02T02:19:29.910Z,10.30
2022-10-02T02:22:16.695Z,10.30
2022-10-02T02:25:11.326Z,10.40
2022-10-02T02:27:44.335Z,10.50
2022-10-02T02:30:14.219Z,10.50
2022-10-02T02:32:55.771Z,10.50
2022-10-02T02:35:34.323Z,10.60
2022-10-02T02:38:18.084Z,10.60
2022-10-02T02:40:47.540Z,10.60
2022-10-02T02:43:44.462Z,10.70
2022-10-02T02:46:18.609Z,10.70
2022-10-02T02:48:52.879Z,10.70
2022-10-02T02:51:35.163Z,10.70
2022-10-02T02:54:21.590Z,10.70
2022-10-02T02:56:51.775Z,10.70
2022-10-02T02:59:20.779Z,10.70
2022-10-02T03:01:48.359Z,10.80
2022-10-02T03:04:15.946Z,10.80
2022-10-02T03:06:45.737Z,10.80
2022-10-02T03:09:18.047Z,10.80
2022-10-02T03:11:54.823Z,10.90
2022-10-02T03:14:46.985Z,10.90
2022-10-02T03:17:34.997Z,10.90
2022-10-02T03:20:08.315Z,10.90
2022-10-02T03:23:04.728Z,10.90
2022-10-02T03:26:02.517Z,10.90
2022-10-02T03:28:54.944Z,11.00
2022-10-02T03:31:25.844Z,11.00
2022-10-02T03:33:54.255Z,11.00
2022-10-02T03:36:24.515Z,11.00
2022-10-02T03:39:23.163Z,11.00
2022-10-02T03:41:45.120Z,10.90
2022-10-02T03:44:12.615Z,10.90
2022-10-02T03:46:40.421Z,10.80
2022-10-02T03:49:08.057Z,10.80
2022-10-02T03:51:38.009Z,10.80
2022-10-02T03:54:15.490Z,10.70
2022-10-02T03:56:58.783Z,10.80
2022-10-02T03:59:35.657Z,10.90
2022-10-02T04:02:10.201Z,10.90
2022-10-02T04:04:50.439Z,11.00
2022-10-02T04:07:24.347Z,11.00
2022-10-02T04:10:21.658Z,11.00
2022-10-02T04:12:53.255Z,11.00
2022-10-02T04:15:30.560Z,10.90
2022-10-02T04:18:06.723Z,11.00
2022-10-02T04:20:51.524Z,11.00
2022-10-02T04:23:31.614Z,10.90
2022-10-02T04:26:23.002Z,11.00
2022-10-02T04:29:01.428Z,11.00
2022-10-02T04:31:29.161Z,11.00
2022-10-02T04:34:01.946Z,11.00
2022-10-02T04:37:09.864Z,11.00
2022-10-02T04:39:46.521Z,11.00
2022-10-02T04:42:29.067Z,11.10
2022-10-02T04:45:19.520Z,11.10
2022-10-02T04:48:01.611Z,11.10
2022-10-02T04:50:52.080Z,11.10
2022-10-02T04:53:31.190Z,11.10
2022-10-02T04:56:19.718Z,11.00
2022-10-02T04:59:02.420Z,11.10
2022-10-02T05:01:58.620Z,11.00
2022-10-02T05:05:02.766Z,11.00
2022-10-02T05:08:15.237Z,11.00
2022-10-02T05:11:23.609Z,11.00
2022-10-02T05:14:16.635Z,11.00
2022-10-02T05:17:08.606Z,11.00
2022-10-02T05:20:18.641Z,11.00
2022-10-02T05:23:04.122Z,11.00
2022-10-02T05:26:14.102Z,11.00
2022-10-02T05:28:59.901Z,11.00
2022-10-02T05:31:27.432Z,11.00
2022-10-02T05:34:16.886Z,11.00
2022-10-02T05:37:30.121Z,11.00
2022-10-02T05:40:20.666Z,10.90
2022-10-02T05:43:08.430Z,10.80
2022-10-02T05:45:46.573Z,10.80
2022-10-02T05:48:32.613Z,10.80
2022-10-02T05:51:08.081Z,10.70
2022-10-02T05:53:43.614Z,10.70
2022-10-02T05:56:22.677Z,10.60
2022-10-02T05:59:07.395Z,10.50
2022-10-02T06:01:41.248Z,10.40
2022-10-02T06:04:39.735Z,10.30
2022-10-02T06:07:12.159Z,10.20
2022-10-02T06:09:55.606Z,10.20
2022-10-02T06:12:55.507Z,10.10
2022-10-02T06:15:31.477Z,10.10
2022-10-02T06:18:07.030Z,10.10
2022-10-02T06:20:46.872Z,10.00
2022-10-02T06:23:17.456Z,10.00
2022-10-02T06:25:49.161Z,10.00
2022-10-02T06:28:31.614Z,10.00
2022-10-02T06:31:10.321Z,9.90
2022-10-02T06:33:38.141Z,9.90
2022-10-02T06:36:21.830Z,9.90
2022-10-02T06:39:00.709Z,9.90
2022-10-02T06:41:47.364Z,9.80
2022-10-02T06:44:48.968Z,9.80
2022-10-02T06:47:25.396Z,9.80
2022-10-02T06:50:30.508Z,9.80
2022-10-02T06:53:28.124Z,9.70
2022-10-02T06:55:59.714Z,9.80
2022-10-02T06:59:04.746Z,9.70
2022-10-02T07:02:09.868Z,9.70
2022-10-02T07:05:01.517Z,9.70
2022-10-02T07:08:13.194Z,9.80
2022-10-02T07:11:05.200Z,9.80
2022-10-02T07:13:49.846Z,9.80
2022-10-02T07:16:25.107Z,10.00
2022-10-02T07:19:27.935Z,10.00
2022-10-02T07:22:39.666Z,10.00
2022-10-02T07:25:37.153Z,10.00
2022-10-02T07:28:21.578Z,10.10
2022-10-02T07:31:10.747Z,10.10
2022-10-02T07:34:13.676Z,10.20
2022-10-02T07:36:41.128Z,10.20
2022-10-02T07:39:23.865Z,10.30
2022-10-02T07:42:15.829Z,10.40
2022-10-02T07:44:58.072Z,10.50
2022-10-02T07:47:44.087Z,10.60
2022-10-02T07:50:30.725Z,10.70
2022-10-02T07:53:31.110Z,10.80
2022-10-02T07:56:00.032Z,10.80
2022-10-02T07:58:36.922Z,10.90
2022-10-02T08:01:12.617Z,10.90
2022-10-02T08:04:03.121Z,11.00
2022-10-02T08:06:33.043Z,11.00
2022-10-02T08:09:03.073Z,11.10
2022-10-02T08:11:38.183Z,11.10
2022-10-02T08:14:12.215Z,11.40
2022-10-02T08:16:49.377Z,11.40
2022-10-02T08:19:29.991Z,11.50
2022-10-02T08:22:25.611Z,11.50
2022-10-02T08:24:57.728Z,11.60
2022-10-02T08:27:28.425Z,11.70
2022-10-02T08:30:04.201Z,11.80
2022-10-02T08:32:36.220Z,12.00
2022-10-02T08:35:12.601Z,12.10
2022-10-02T08:37:55.129Z,12.10
2022-10-02T08:40:55.059Z,12.20
2022-10-02T08:43:45.099Z,12.40
2022-10-02T08:46:41.890Z,12.50
2022-10-02T08:49:40.248Z,12.60
2022-10-02T08:52:20.423Z,12.70
2022-10-02T08:55:12.545Z,12.70
2022-10-02T08:57:58.766Z,12.90
2022-10-02T09:01:03.872Z,12.90
2022-10-02T09:03:42.384Z,12.90
2022-10-02T09:06:15.963Z,12.90
2022-10-02T09:09:20.692Z,12.90
2022-10-02T09:12:01.243Z,13.00
2022-10-02T09:14:47.576Z,13.10
2022-10-02T09:17:33.677Z,13.10
2022-10-02T09:20:28.265Z,13.10
2022-10-02T09:23:07.954Z,13.20
2022-10-02T09:25:35.931Z,13.20
2022-10-02T09:28:12.320Z,13.40
2022-10-02T09:31:08.967Z,13.40
2022-10-02T09:33:58.267Z,13.40
2022-10-02T09:36:49.372Z,13.50
2022-10-02T09:39:16.850Z,13.50
2022-10-02T09:42:16.884Z,13.60
2022-10-02T09:45:02.730Z,13.60
2022-10-02T09:48:01.532Z,13.60
2022-10-02T09:50:37.763Z,13.70
2022-10-02T09:53:30.482Z,13.70
2022-10-02T09:56:35.986Z,13.90
2022-10-02T09:59:25.551Z,14.10
2022-10-02T10:02:26.764Z,14.00
2022-10-02T10:05:34.865Z,14.20
2022-10-02T10:08:36.005Z,14.20
2022-10-02T10:11:50.796Z,14.20
2022-10-02T10:14:21.411Z,14.30
2022-10-02T10:16:49.016Z,14.40
2022-10-02T10:19:53.888Z,14.40
2022-10-02T10:22:40.164Z,14.40
2022-10-02T10:25:39.227Z,14.40
2022-10-02T10:28:25.217Z,14.40
2022-10-02T10:31:02.667Z,14.40
2022-10-02T10:33:56.047Z,14.50
2022-10-02T10:37:03.268Z,14.60
2022-10-02T10:39:46.460Z,14.50
2022-10-02T10:42:44.935Z,14.60
2022-10-02T10:45:35.136Z,14.70
2022-10-02T10:48:33.845Z,14.70
2022-10-02T10:51:40.316Z,14.70
2022-10-02T10:54:16.766Z,14.70
2022-10-02T10:56:47.572Z,14.80
2022-10-02T10:59:42.443Z,14.90
2022-10-02T11:03:02.594Z,14.90
2022-10-02T11:06:03.572Z,15.00
2022-10-02T11:08:49.180Z,15.10
2022-10-02T11:11:31.993Z,15.10
2022-10-02T11:14:13.561Z,15.30
2022-10-02T11:17:08.376Z,15.50
2022-10-02T11:20:01.203Z,15.60
2022-10-02T11:22:47.843Z,15.70
2022-10-02T11:25:26.531Z,15.90
2022-10-02T11:28:22.310Z,15.90
2022-10-02T11:31:19.047Z,16.00
2022-10-02T11:34:01.460Z,16.20
2022-10-02T11:36:52.762Z,16.10
2022-10-02T11:39:59.893Z,16.10
2022-10-02T11:42:43.081Z,16.10
2022-10-02T11:45:16.484Z,16.10
2022-10-02T11:48:13.981Z,15.90
2022-10-02T11:51:22.735Z,15.80
2022-10-02T11:54:19.738Z,15.80
2022-10-02T11:57:06.140Z,15.70
2022-10-02T12:00:14.195Z,15.80
2022-10-02T12:02:55.692Z,15.70
2022-10-02T12:05:56.992Z,15.70
2022-10-02T12:09:07.449Z,15.60
2022-10-02T12:11:55.491Z,15.40
2022-10-02T12:14:59.095Z,15.30
2022-10-02T12:17:44.728Z,15.40
2022-10-02T12:21:34.222Z,15.40
2022-10-02T12:24:32.263Z,15.30
2022-10-02T12:27:24.932Z,15.20
2022-10-02T12:30:07.956Z,15.20
2022-10-02T12:32:49.773Z,15.20
2022-10-02T12:35:20.633Z,15.20
2022-10-02T12:38:25.522Z,15.20
2022-10-02T12:41:22.325Z,15.20
2022-10-02T12:44:17.220Z,15.20
2022-10-02T12:47:02.565Z,15.20
2022-10-02T12:49:38.768Z,15.20
2022-10-02T12:52:23.978Z,15.20
2022-10-02T12:55:09.916Z,15.20
2022-10-02T12:58:04.423Z,15.30
2022-10-02T13:01:09.012Z,15.30
2022-10-02T13:03:51.578Z,15.30
2022-10-02T13:06:37.701Z,15.40
2022-10-02T13:09:55.086Z,15.60
2022-10-02T13:12:59.589Z,15.60
2022-10-02T13:15:43.876Z,15.70
2022-10-02T13:18:43.534Z,15.60
2022-10-02T13:21:47.337Z,15.70
2022-10-02T13:24:51.296Z,15.70
2022-10-02T13:27:28.250Z,15.90
2022-10-02T13:30:04.047Z,16.00
2022-10-02T13:32:48.335Z,16.10
2022-10-02T13:35:38.392Z,16.30
2022-10-02T13:38:24.724Z,16.50
2022-10-02T13:41:00.728Z,16.60
2022-10-02T13:43:58.277Z,16.70
2022-10-02T13:46:26.054Z,16.90
2022-10-02T13:49:19.381Z,16.70
2022-10-02T13:51:55.484Z,16.60
2022-10-02T13:54:50.060Z,16.50
2022-10-02T13:57:45.617Z,16.70
2022-10-02T14:00:21.848Z,16.50
2022-10-02T14:03:09.967Z,16.40
2022-10-02T14:05:43.366Z,16.30
2022-10-02T14:08:26.671Z,16.20
2022-10-02T14:11:31.655Z,16.10
2022-10-02T14:14:03.802Z,16.00
2022-10-02T14:16:41.726Z,16.00
2022-10-02T14:19:22.367Z,16.00
2022-10-02T14:22:21.090Z,15.90
2022-10-02T14:25:04.312Z,16.00
2022-10-02T14:27:31.895Z,15.90
2022-10-02T14:30:17.406Z,15.90
2022-10-02T14:33:05.849Z,15.80
2022-10-02T14:36:04.541Z,15.90
2022-10-02T14:38:36.808Z,15.90
2022-10-02T14:41:20.936Z,15.90
2022-10-02T14:44:18.256Z,15.80
2022-10-02T14:47:43.147Z,15.80
2022-10-02T14:50:18.365Z,15.70
2022-10-02T14:53:13.342Z,15.80
2022-10-02T14:55:49.827Z,15.80
2022-10-02T14:58:23.668Z,15.90
2022-10-02T15:01:10.719Z,15.80
2022-10-02T15:04:23.356Z,15.80
2022-10-02T15:07:12.201Z,15.80
2022-10-02T15:09:58.475Z,15.80
2022-10-02T15:12:49.097Z,15.80
2022-10-02T15:15:21.152Z,15.80
2022-10-02T15:18:17.418Z,15.80
2022-10-02T15:21:03.512Z,15.80
2022-10-02T15:23:37.467Z,15.80
2022-10-02T15:26:20.070Z,15.80
2022-10-02T15:29:00.025Z,15.70
2022-10-02T15:31:33.709Z,15.70
2022-10-02T15:34:27.394Z,15.70
2022-10-02T15:37:25.397Z,15.70
2022-10-02T15:39:52.992Z,15.70
2022-10-02T15:42:39.084Z,15.70
2022-10-02T15:45:16.931Z,15.80
2022-10-02T15:48:19.993Z,15.80
2022-10-02T15:51:00.390Z,15.80
2022-10-02T15:53:28.103Z,15.90
2022-10-02T15:56:17.471Z,15.90
2022-10-02T15:59:02.041Z,15.90
2022-10-02T16:01:45.114Z,15.90
2022-10-02T16:04:22.475Z,15.90
2022-10-02T16:07:27.201Z,15.90
2022-10-02T16:10:16.618Z,15.80
2022-10-02T16:13:09.010Z,15.80
2022-10-02T16:15:39.321Z,15.80
2022-10-02T16:18:21.050Z,15.70
2022-10-02T16:20:51.720Z,15.70
2022-10-02T16:23:34.282Z,15.70
2022-10-02T16:26:43.187Z,15.50
2022-10-02T16:29:48.588Z,15.40
2022-10-02T16:32:58.316Z,15.30
2022-10-02T16:35:44.745Z,15.30
2022-10-02T16:38:34.778Z,15.20
2022-10-02T16:41:26.714Z,15.10
2022-10-02T16:44:19.196Z,15.00
2022-10-02T16:46:54.628Z,15.00
2022-10-02T16:49:31.711Z,14.90
2022-10-02T16:52:40.262Z,14.90
2022-10-02T16:55:32.834Z,14.80
2022-10-02T16:58:12.328Z,14.60
2022-10-02T17:00:50.710Z,14.60
2022-10-02T17:03:33.936Z,14.60
2022-10-02T17:06:19.712Z,14.60
2022-10-02T17:08:58.589Z,14.50
2022-10-02T17:11:34.736Z,14.50
2022-10-02T17:14:02.302Z,14.40
2022-10-02T17:16:40.438Z,14.40
2022-10-02T17:19:24.034Z,14.30
2022-10-02T17:22:27.005Z,14.30
2022-10-02T17:25:15.277Z,14.30
2022-10-02T17:27:59.160Z,14.20
2022-10-02T17:30:30.273Z,14.20
2022-10-02T17:33:07.681Z,14.20
2022-10-02T17:35:55.044Z,14.20
2022-10-02T17:38:25.167Z,14.20
2022-10-02T17:41:14.441Z,14.20
2022-10-02T17:43:50.311Z,14.20
2022-10-02T17:46:23.358Z,14.20
2022-10-02T17:49:29.354Z,14.10
2022-10-02T17:52:33.933Z,14.20
2022-10-02T17:55:38.848Z,14.20
2022-10-02T17:58:29.829Z,14.10
2022-10-02T18:01:17.855Z,14.10
2022-10-02T18:04:12.070Z,14.20
2022-10-02T18:06:58.499Z,14.10
2022-10-02T18:09:49.820Z,14.10
2022-10-02T18:12:41.683Z,14.10
2022-10-02T18:15:27.307Z,14.10
2022-10-02T18:18:27.855Z,14.10
2022-10-02T18:20:58.472Z,14.10
2022-10-02T18:23:55.951Z,14.10
2022-10-02T18:26:26.328Z,14.10
2022-10-02T18:29:15.145Z,14.20
2022-10-02T18:32:11.666Z,14.10
2022-10-02T18:35:00.202Z,14.10
2022-10-02T18:37:48.278Z,14.10
2022-10-02T18:40:29.508Z,14.20
2022-10-02T18:43:15.704Z,14.20
2022-10-02T18:45:58.949Z,14.20
2022-10-02T18:48:38.410Z,14.10
2022-10-02T18:51:06.433Z,14.00
2022-10-02T18:53:58.140Z,14.00
2022-10-02T18:56:51.675Z,14.00
2022-10-02T18:59:35.691Z,13.90
2022-10-02T19:02:06.293Z,13.90
2022-10-02T19:05:15.403Z,13.90
2022-10-02T19:08:06.337Z,13.90
2022-10-02T19:10:34.193Z,13.90
2022-10-02T19:13:18.278Z,13.80
2022-10-02T19:15:48.524Z,13.70
2022-10-02T19:18:17.473Z,13.70
2022-10-02T19:21:03.302Z,13.60
2022-10-02T19:23:48.246Z,13.50
2022-10-02T19:26:26.686Z,13.40
2022-10-02T19:29:01.759Z,13.40
2022-10-02T19:31:31.363Z,13.30
2022-10-02T19:34:21.486Z,13.30
2022-10-02T19:36:53.187Z,13.30
2022-10-02T19:39:24.471Z,13.30
2022-10-02T19:41:57.733Z,13.30
2022-10-02T19:44:48.101Z,13.20
2022-10-02T19:47:31.806Z,13.20
2022-10-02T19:50:01.572Z,13.20
2022-10-02T19:52:31.789Z,13.10
2022-10-02T19:55:04.506Z,13.10
2022-10-02T19:57:40.178Z,13.10
2022-10-02T20:00:17.439Z,13.10
2022-10-02T20:02:47.724Z,13.10
2022-10-02T20:05:36.579Z,13.00
2022-10-02T20:08:17.095Z,13.10
2022-10-02T20:11:01.698Z,13.10
2022-10-02T20:13:53.274Z,13.10
2022-10-02T20:16:44.848Z,13.20
2022-10-02T20:19:27.615Z,13.20
2022-10-02T20:21:57.568Z,13.20
2022-10-02T20:24:51.414Z,13.10
2022-10-02T20:27:41.634Z,13.10
2022-10-02T20:30:17.944Z,13.10
2022-10-02T20:33:18.278Z,13.10
2022-10-02T20:36:05.040Z,13.10
2022-10-02T20:38:43.914Z,13.10
2022-10-02T20:41:19.210Z,13.10
2022-10-02T20:44:06.691Z,13.10
2022-10-02T20:46:35.862Z,13.00
2022-10-02T20:49:40.587Z,13.10
2022-10-02T20:52:29.445Z,13.00
2022-10-02T20:55:30.665Z,13.00
2022-10-02T20:58:16.415Z,13.00
2022-10-02T21:01:00.587Z,12.90
2022-10-02T21:03:34.310Z,12.90
2022-10-02T21:06:24.407Z,12.80
2022-10-02T21:09:17.235Z,12.80
2022-10-02T21:12:03.159Z,12.80
2022-10-02T21:14:53.326Z,12.70
2022-10-02T21:17:38.683Z,12.70
2022-10-02T21:20:49.804Z,12.70
2022-10-02T21:23:51.033Z,12.60
2022-10-02T21:26:27.031Z,12.50
2022-10-02T21:29:09.402Z,12.40
2022-10-02T21:32:10.302Z,12.30
2022-10-02T21:34:59.062Z,12.20
2022-10-02T21:37:45.599Z,12.20
2022-10-02T21:40:16.108Z,12.10
2022-10-02T21:43:05.251Z,12.10
2022-10-02T21:46:10.144Z,12.10
2022-10-02T21:49:01.608Z,12.00
2022-10-02T21:52:03.177Z,12.00
2022-10-02T21:54:58.121Z,12.00
2022-10-02T21:58:02.812Z,12.00
2022-10-02T22:00:31.648Z,12.00
2022-10-02T22:03:29.544Z,12.00
2022-10-02T22:06:06.768Z,11.80
2022-10-02T22:08:43.680Z,11.70
2022-10-02T22:11:19.280Z,11.70
2022-10-02T22:13:50.001Z,11.70
2022-10-02T22:16:39.146Z,11.70
2022-10-02T22:19:19.804Z,11.60
2022-10-02T22:21:56.098Z,11.50
2022-10-02T22:24:59.733Z,11.50
2022-10-02T22:27:53.425Z,11.40
2022-10-02T22:30:49.662Z,11.30
2022-10-02T22:33:42.157Z,11.30
2022-10-02T22:36:37.912Z,11.30
2022-10-02T22:39:29.483Z,11.30
2022-10-02T22:42:03.059Z,11.30
2022-10-02T22:44:46.158Z,11.30
2022-10-02T22:47:28.369Z,11.20
2022-10-02T22:50:08.624Z,11.30
2022-10-02T22:52:48.992Z,11.30
2022-10-02T22:56:08.585Z,11.40
2022-10-02T22:58:47.801Z,11.50
2022-10-02T23:01:45.720Z,11.40
2022-10-02T23:04:28.664Z,11.50
2022-10-02T23:07:06.303Z,11.60
2022-10-02T23:09:46.121Z,11.60
2022-10-02T23:12:36.535Z,11.50
2022-10-02T23:15:25.815Z,11.60
2022-10-02T23:18:24.227Z,11.60
2022-10-02T23:21:02.606Z,11.70
2022-10-02T23:23:43.122Z,11.60
2022-10-02T23:26:31.500Z,11.60
2022-10-02T23:29:36.019Z,11.60
2022-10-02T23:32:25.632Z,11.50
2022-10-02T23:35:08.293Z,11.60
2022-10-02T23:37:48.265Z,11.70
2022-10-02T23:40:49.357Z,11.60
2022-10-02T23:43:30.069Z,11.60
2022-10-02T23:46:06.765Z,11.60
2022-10-02T23:48:36.459Z,11.60
2022-10-02T23:51:27.745Z,11.60
2022-10-02T23:54:21.490Z,11.60
2022-10-02T23:57:07.263Z,11.60
2022-10-02T23:59:46.071Z,11.70
